Time;durP1;ratioP1;P1;durP2;ratioP2;P2;SDS_P1;SDS_P2;PMS_P1;PMS_P2;Temp;Humidity;BMP_temperature;BMP_pressure;BME280_temperature;BME280_humidity;BME280_pressure;Samples;Min_cycle;Max_cycle;Signal;HPM_P1;HPM_P2
2022/01/19 00:01:11;;;;;;;50.90;22.60;;;5.50;99.90;;;;;;5051592;28;20395;-82
2022/01/19 00:03:37;;;;;;;46.95;20.13;;;5.30;99.90;;;;;;5051573;28;20116;-82
2022/01/19 00:06:03;;;;;;;48.70;21.17;;;5.40;99.90;;;;;;5051321;28;20115;-82
2022/01/19 00:08:29;;;;;;;49.03;20.20;;;5.40;99.90;;;;;;5051488;28;20049;-82
2022/01/19 00:10:55;;;;;;;52.10;21.63;;;5.30;99.90;;;;;;5052700;28;20032;-82
2022/01/19 00:13:21;;;;;;;49.45;20.50;;;5.30;99.90;;;;;;5052166;28;20076;-82
2022/01/19 00:15:47;;;;;;;47.67;20.92;;;5.30;99.90;;;;;;5052585;28;20025;-82
2022/01/19 00:18:16;;;;;;;53.40;21.60;;;5.30;99.90;;;;;;5051394;28;20047;-82
2022/01/19 00:20:41;;;;;;;47.55;21.05;;;5.30;99.90;;;;;;5050979;28;20025;-83
2022/01/19 00:23:08;;;;;;;46.35;20.35;;;5.30;99.90;;;;;;5052364;28;20108;-82
2022/01/19 00:25:34;;;;;;;53.85;21.83;;;5.40;99.90;;;;;;5050889;28;20119;-82
2022/01/19 00:28:00;;;;;;;49.22;21.13;;;5.40;99.90;;;;;;5050839;28;20052;-82
2022/01/19 00:30:27;;;;;;;41.80;19.33;;;5.40;99.90;;;;;;5050851;28;20103;-82
2022/01/19 00:32:53;;;;;;;45.28;20.95;;;5.30;99.90;;;;;;5052251;28;20025;-82
2022/01/19 00:35:18;;;;;;;47.28;20.05;;;5.30;99.90;;;;;;5051561;28;20029;-82
2022/01/19 00:37:44;;;;;;;45.45;20.27;;;5.30;99.90;;;;;;5051190;28;20036;-82
2022/01/19 00:40:14;;;;;;;43.88;19.45;;;5.40;99.90;;;;;;5051151;28;20021;-82
2022/01/19 00:42:40;;;;;;;45.67;20.27;;;5.30;99.90;;;;;;5050912;28;20021;-83
2022/01/19 00:45:07;;;;;;;41.25;19.17;;;5.40;99.90;;;;;;5051062;28;20025;-83
2022/01/19 00:47:33;;;;;;;36.92;17.88;;;5.30;99.90;;;;;;5052373;28;20028;-82
2022/01/19 00:49:59;;;;;;;39.03;18.30;;;5.30;99.90;;;;;;5052060;28;20021;-82
2022/01/19 00:52:25;;;;;;;42.67;19.15;;;5.30;99.90;;;;;;5051981;28;20036;-82
2022/01/19 00:54:50;;;;;;;39.55;17.83;;;5.30;99.90;;;;;;5050795;28;20025;-82
2022/01/19 00:57:22;;;;;;;34.45;17.55;;;5.30;99.90;;;;;;5051147;28;20017;-82
2022/01/19 00:59:48;;;;;;;46.35;18.90;;;5.30;99.90;;;;;;5052584;28;20090;-82
2022/01/19 01:02:14;;;;;;;39.78;17.83;;;5.30;99.90;;;;;;5054950;28;20028;-82
2022/01/19 01:04:39;;;;;;;46.00;19.38;;;5.20;99.90;;;;;;5054586;28;20029;-82
2022/01/19 01:07:05;;;;;;;40.45;16.73;;;5.30;99.90;;;;;;5054658;28;20115;-82
2022/01/19 01:09:30;;;;;;;34.78;17.35;;;5.30;99.90;;;;;;5054512;28;20056;-82
2022/01/19 01:12:10;;;;;;;39.38;16.63;;;5.20;99.90;;;;;;5055207;28;20059;-82
2022/01/19 01:20:07;;;;;;;31.80;14.88;;;5.20;99.90;;;;;;5036084;28;20099;-82
2022/01/19 01:22:34;;;;;;;32.60;17.25;;;5.20;99.90;;;;;;5035880;28;20439;-82
2022/01/19 01:24:59;;;;;;;41.15;16.98;;;5.20;99.90;;;;;;5034241;28;20026;-82
2022/01/19 01:27:25;;;;;;;33.47;16.67;;;5.20;99.90;;;;;;5034435;28;20025;-82
2022/01/19 01:29:50;;;;;;;38.10;18.70;;;5.20;99.90;;;;;;5035723;28;20051;-82
2022/01/19 01:32:16;;;;;;;44.15;17.80;;;5.20;99.90;;;;;;5034212;28;20032;-82
2022/01/19 01:34:42;;;;;;;40.50;18.83;;;5.10;99.90;;;;;;5034069;28;20026;-82
2022/01/19 01:37:07;;;;;;;47.50;20.67;;;5.20;99.90;;;;;;5035662;28;20026;-82
2022/01/19 01:39:33;;;;;;;45.38;19.60;;;5.10;99.90;;;;;;5044063;28;20056;-82
2022/01/19 01:41:59;;;;;;;40.85;18.58;;;5.10;99.90;;;;;;5055279;28;20436;-82
2022/01/19 01:44:24;;;;;;;49.15;20.40;;;5.10;99.90;;;;;;5055466;28;20415;-82
2022/01/19 01:46:55;;;;;;;42.88;17.63;;;5.00;99.90;;;;;;5055359;28;20025;-82
2022/01/19 01:49:45;;;;;;;;;;;4.90;99.90;;;;;;5055526;28;20028;-82
2022/01/19 01:54:51;;;;;;;42.53;17.05;;;4.90;99.90;;;;;;5055065;28;20078;-82
2022/01/19 01:57:17;;;;;;;42.20;16.38;;;4.90;99.90;;;;;;5054832;28;20021;-82
2022/01/19 01:59:42;;;;;;;45.47;16.70;;;4.90;99.90;;;;;;5055076;28;20088;-82
2022/01/19 02:02:08;;;;;;;44.92;16.35;;;4.80;99.90;;;;;;5054982;28;20389;-83
2022/01/19 02:04:40;;;;;;;47.90;17.38;;;4.90;99.90;;;;;;5053663;28;20111;-82
2022/01/19 02:09:57;;;;;;;49.03;16.92;;;4.80;99.90;;;;;;5054843;28;20067;-82
2022/01/19 02:23:46;;;;;;;44.08;14.18;;;4.90;99.90;;;;;;5054363;28;20032;-82
2022/01/19 02:26:19;;;;;;;40.15;14.00;;;4.90;99.90;;;;;;5053149;28;20025;-82
2022/01/19 02:40:10;;;;;;;56.10;16.52;;;4.90;99.90;;;;;;5054179;28;20404;-82
2022/01/19 02:42:30;;;;;;;50.75;16.63;;;5.00;99.90;;;;;;5053939;28;20075;-82
2022/01/19 02:50:18;;;;;;;67.72;18.88;;;5.10;99.90;;;;;;5054101;28;20068;-82
2022/01/19 02:52:43;;;;;;;73.80;20.45;;;5.00;99.90;;;;;;5052542;28;20048;-82
2022/01/19 02:55:09;;;;;;;67.35;19.00;;;5.10;99.90;;;;;;5053742;28;20029;-82
2022/01/19 02:57:38;;;;;;;54.80;17.73;;;5.00;99.90;;;;;;5051268;28;20118;-82
2022/01/19 03:11:05;;;;;;;55.55;16.50;;;4.90;99.90;;;;;;5053796;28;20117;-82
2022/01/19 03:13:30;;;;;;;50.65;15.25;;;4.90;99.90;;;;;;5052321;28;20128;-82
2022/01/19 03:15:56;;;;;;;61.33;16.80;;;4.90;99.90;;;;;;5053531;28;20037;-82
2022/01/19 03:18:22;;;;;;;62.85;18.10;;;5.00;99.90;;;;;;5052134;28;20025;-82
2022/01/19 03:20:47;;;;;;;50.40;15.90;;;4.90;99.90;;;;;;5051913;28;20473;-82
2022/01/19 03:23:20;;;;;;;57.53;15.88;;;4.90;99.90;;;;;;5053175;28;20060;-82
2022/01/19 03:25:51;;;;;;;50.63;15.68;;;4.90;99.90;;;;;;5051801;28;20724;-82
2022/01/19 03:28:18;;;;;;;61.70;15.68;;;4.80;99.90;;;;;;5052445;28;20078;-82
2022/01/19 03:30:44;;;;;;;55.95;15.63;;;4.90;99.90;;;;;;5051754;28;20024;-82
2022/01/19 03:33:10;;;;;;;58.20;15.55;;;4.90;99.90;;;;;;5051525;28;20438;-82
2022/01/19 03:35:38;;;;;;;52.15;14.75;;;4.90;99.90;;;;;;5051586;28;20535;-82
2022/01/19 03:38:05;;;;;;;47.85;14.48;;;4.90;99.90;;;;;;5053017;28;20017;-82
2022/01/19 03:40:30;;;;;;;59.30;15.48;;;4.80;99.90;;;;;;5051716;28;20036;-82
2022/01/19 03:42:56;;;;;;;57.55;13.48;;;4.80;99.90;;;;;;5052935;28;20024;-82
2022/01/19 03:45:21;;;;;;;55.85;14.68;;;4.90;99.90;;;;;;5051659;28;20052;-82
2022/01/19 03:48:12;;;;;;;47.20;14.10;;;4.70;99.90;;;;;;5052609;28;20017;-82
2022/01/19 03:50:38;;;;;;;57.90;16.67;;;4.70;99.90;;;;;;5051553;28;20035;-82
2022/01/19 03:53:03;;;;;;;52.00;14.52;;;4.80;99.90;;;;;;5052634;28;20037;-82
2022/01/19 03:55:29;;;;;;;59.25;16.17;;;4.80;99.90;;;;;;5051798;28;20112;-82
2022/01/19 03:57:54;;;;;;;53.25;16.08;;;4.90;99.90;;;;;;5051229;28;20112;-82
2022/01/19 04:00:21;;;;;;;61.60;16.40;;;4.80;99.90;;;;;;5052635;28;20028;-82
2022/01/19 04:02:48;;;;;;;53.53;16.48;;;4.80;99.90;;;;;;5051340;28;20044;-82
2022/01/19 04:05:24;;;;;;;55.50;15.65;;;4.80;99.90;;;;;;5052912;28;20024;-82
2022/01/19 04:07:50;;;;;;;57.35;15.70;;;4.80;99.90;;;;;;5051087;28;20040;-82
2022/01/19 04:10:16;;;;;;;50.55;15.45;;;4.70;99.90;;;;;;5052949;28;20032;-82
2022/01/19 04:12:56;;;;;;;56.55;16.33;;;4.70;99.90;;;;;;5052473;28;20688;-82
2022/01/19 04:15:24;;;;;;;55.17;16.13;;;4.90;99.90;;;;;;5052494;28;20052;-82
2022/01/19 04:17:54;;;;;;;58.20;16.88;;;4.80;99.90;;;;;;5052348;28;20092;-82
2022/01/19 04:20:25;;;;;;;59.80;17.17;;;4.80;99.90;;;;;;5052407;28;20041;-82
2022/01/19 04:22:51;;;;;;;65.38;17.15;;;4.70;99.90;;;;;;5052281;28;20484;-82
2022/01/19 04:25:17;;;;;;;99.38;17.27;;;4.70;99.90;;;;;;5050740;28;20021;-82
2022/01/19 04:27:43;;;;;;;77.75;18.30;;;4.70;99.90;;;;;;5051358;28;20021;-82
2022/01/19 04:30:12;;;;;;;52.78;16.73;;;4.70;99.90;;;;;;5051024;28;20075;-82
2022/01/19 04:32:50;;;;;;;81.78;18.35;;;4.80;99.90;;;;;;5051164;28;20773;-82
2022/01/19 04:35:21;;;;;;;61.17;17.08;;;4.80;99.90;;;;;;5053916;28;20025;-82
2022/01/19 04:46:26;;;;;;;65.00;17.25;;;4.80;99.90;;;;;;5056146;28;20035;-82
2022/01/19 05:05:10;;;;;;;64.57;19.42;;;4.80;99.90;;;;;;5055872;28;20035;-82
2022/01/19 05:08:33;;;;;;;66.25;17.98;;;4.80;99.90;;;;;;5056318;28;20385;-82
2022/01/19 05:13:32;;;;;;;66.72;19.00;;;4.80;99.90;;;;;;5055237;28;20052;-82
2022/01/19 05:15:58;;;;;;;67.60;19.15;;;4.70;99.90;;;;;;5055712;28;20060;-82
2022/01/19 05:18:23;;;;;;;69.18;19.60;;;4.80;99.90;;;;;;5054228;28;20045;-82
2022/01/19 05:20:49;;;;;;;65.35;19.73;;;4.80;99.90;;;;;;5054649;28;20060;-82
2022/01/19 05:23:16;;;;;;;66.60;20.02;;;4.80;99.90;;;;;;5054333;28;20323;-82
2022/01/19 05:25:42;;;;;;;68.10;20.45;;;4.70;99.90;;;;;;5053630;28;20112;-82
2022/01/19 05:28:08;;;;;;;80.72;19.23;;;4.80;99.90;;;;;;5055661;28;20052;-82
2022/01/19 05:30:34;;;;;;;72.40;18.83;;;4.70;99.90;;;;;;5054460;28;20073;-82
2022/01/19 05:32:59;;;;;;;66.43;19.10;;;4.70;99.90;;;;;;5055276;28;20040;-82
2022/01/19 05:35:27;;;;;;;60.03;19.27;;;4.70;99.90;;;;;;5054031;28;20024;-82
2022/01/19 05:37:53;;;;;;;57.28;17.85;;;4.60;99.90;;;;;;5054191;28;20033;-82
2022/01/19 05:40:18;;;;;;;67.32;19.27;;;4.60;99.90;;;;;;5055164;28;20115;-82
2022/01/19 05:42:47;;;;;;;57.40;18.85;;;4.60;99.90;;;;;;5054088;28;20065;-82
2022/01/19 05:45:13;;;;;;;69.38;20.55;;;4.60;99.90;;;;;;5054820;28;20428;-82
2022/01/19 05:47:38;;;;;;;56.33;19.50;;;4.60;99.90;;;;;;5054490;28;20083;-83
2022/01/19 05:50:04;;;;;;;62.00;18.25;;;4.70;99.90;;;;;;5053695;28;20017;-83
2022/01/19 05:52:30;;;;;;;57.42;18.98;;;4.60;99.90;;;;;;5053946;28;20863;-82
2022/01/19 05:54:55;;;;;;;59.58;18.60;;;4.60;99.90;;;;;;5053751;28;20119;-82
2022/01/19 05:57:21;;;;;;;59.72;18.33;;;4.60;99.90;;;;;;5053438;28;20025;-82
2022/01/19 05:59:47;;;;;;;60.25;18.73;;;4.60;99.90;;;;;;5055103;28;20025;-82
2022/01/19 06:02:13;;;;;;;58.35;17.45;;;4.50;99.90;;;;;;5054011;28;20029;-82
2022/01/19 06:04:38;;;;;;;63.65;19.67;;;4.60;99.90;;;;;;5054560;28;20052;-82
2022/01/19 06:07:04;;;;;;;55.90;16.75;;;4.60;99.90;;;;;;5055008;28;20032;-82
2022/01/19 06:12:21;;;;;;;56.25;17.60;;;4.60;99.90;;;;;;5053268;28;20126;-82
2022/01/19 06:14:47;;;;;;;57.20;18.83;;;4.60;99.90;;;;;;5053939;28;20060;-83
2022/01/19 06:17:13;;;;;;;58.00;19.48;;;4.70;99.90;;;;;;5044454;28;20388;-81
2022/01/19 06:23:25;;;;;;;68.20;19.15;;;4.60;99.90;;;;;;5037516;28;20095;-81
2022/01/19 06:25:51;;;;;;;67.33;19.70;;;4.60;99.90;;;;;;5048046;28;20040;-82
2022/01/19 06:28:17;;;;;;;56.28;19.20;;;4.60;99.90;;;;;;5033992;28;20250;-82
2022/01/19 06:30:42;;;;;;;53.58;19.25;;;4.70;99.90;;;;;;5042757;28;20473;-82
2022/01/19 06:33:08;;;;;;;50.92;17.88;;;4.70;99.90;;;;;;5053910;28;20365;-82
2022/01/19 06:35:34;;;;;;;58.95;18.73;;;4.70;99.90;;;;;;5054936;28;20017;-81
2022/01/19 06:37:59;;;;;;;60.40;19.55;;;4.60;99.90;;;;;;5048359;28;20013;-81
2022/01/19 06:40:27;;;;;;;53.47;18.40;;;4.70;99.90;;;;;;5054064;28;20029;-81
2022/01/19 06:42:54;;;;;;;56.55;19.33;;;4.60;99.90;;;;;;5055420;28;20036;-81
2022/01/19 06:45:22;;;;;;;53.17;19.27;;;4.70;99.90;;;;;;5045819;28;20044;-81
2022/01/19 06:47:48;;;;;;;52.20;18.92;;;4.70;99.90;;;;;;5032794;28;20060;-83
2022/01/19 06:50:18;;;;;;;52.63;19.63;;;4.70;99.90;;;;;;5031246;28;20077;-80
2022/01/19 06:52:44;;;;;;;;;;;4.60;99.90;;;;;;5035767;28;20029;-80
2022/01/19 06:55:10;;;;;;;51.67;19.13;;;4.70;99.90;;;;;;5051272;28;19912;-81
2022/01/19 06:57:35;;;;;;;51.63;19.35;;;4.70;99.90;;;;;;5052480;28;20127;-81
2022/01/19 07:00:02;;;;;;;54.88;18.70;;;4.70;99.90;;;;;;5051506;28;20017;-82
2022/01/19 07:02:28;;;;;;;57.15;20.33;;;4.90;99.90;;;;;;5052518;28;20116;-81
2022/01/19 07:04:54;;;;;;;52.55;18.33;;;4.70;99.90;;;;;;5050515;28;20163;-81
2022/01/19 07:07:20;;;;;;;52.75;18.77;;;4.80;99.90;;;;;;5052189;28;20060;-82
2022/01/19 07:09:47;;;;;;;61.30;18.95;;;4.80;99.90;;;;;;5052611;28;20049;-82
2022/01/19 07:12:13;;;;;;;54.20;18.73;;;4.80;99.90;;;;;;5050900;28;20092;-82
2022/01/19 07:14:39;;;;;;;51.38;19.25;;;4.70;99.90;;;;;;5050667;28;20067;-82
2022/01/19 07:17:05;;;;;;;54.05;19.45;;;4.80;99.90;;;;;;5050409;28;20118;-81
2022/01/19 07:19:31;;;;;;;50.97;19.83;;;4.80;99.90;;;;;;5051728;28;20607;-82
2022/01/19 07:21:57;;;;;;;69.45;20.88;;;4.80;99.90;;;;;;5050239;28;20115;-82
2022/01/19 07:24:22;;;;;;;59.22;18.75;;;4.80;99.90;;;;;;5050631;28;20021;-81
2022/01/19 07:26:48;;;;;;;73.03;19.90;;;4.80;99.90;;;;;;5050450;28;20028;-81
2022/01/19 07:29:14;;;;;;;60.05;21.52;;;4.90;99.90;;;;;;5050569;28;20485;-82
2022/01/19 07:31:41;;;;;;;52.45;18.02;;;4.80;99.90;;;;;;5049782;28;20025;-80
2022/01/19 07:34:07;;;;;;;49.72;19.38;;;4.90;99.90;;;;;;5051647;28;20063;-80
2022/01/19 07:36:33;;;;;;;48.50;18.40;;;4.80;99.90;;;;;;5051974;28;20159;-80
2022/01/19 07:38:58;;;;;;;50.17;18.60;;;5.00;99.90;;;;;;5051234;28;20092;-80
2022/01/19 07:41:24;;;;;;;51.42;20.23;;;5.00;99.90;;;;;;5049946;28;20024;-79
2022/01/19 07:43:50;;;;;;;54.05;20.20;;;5.00;99.90;;;;;;5050138;28;20017;-79
2022/01/19 07:46:16;;;;;;;52.13;20.50;;;5.00;99.90;;;;;;5048253;28;20369;-79
2022/01/19 07:48:42;;;;;;;52.70;19.55;;;5.00;99.90;;;;;;5031327;28;20033;-79
2022/01/19 07:51:07;;;;;;;52.58;20.20;;;5.00;99.90;;;;;;5036000;28;20029;-79
2022/01/19 07:53:33;;;;;;;49.90;19.00;;;5.10;99.90;;;;;;5041403;28;20021;-79
2022/01/19 07:55:58;;;;;;;53.75;20.23;;;5.10;99.90;;;;;;5045518;28;20096;-79
2022/01/19 07:58:24;;;;;;;51.72;19.42;;;5.00;99.90;;;;;;5053591;28;20056;-80
2022/01/19 08:00:50;;;;;;;52.63;19.83;;;5.10;99.90;;;;;;5052419;28;20033;-79
2022/01/19 08:03:15;;;;;;;47.10;18.08;;;5.10;99.90;;;;;;5053437;28;20100;-79
2022/01/19 08:05:41;;;;;;;41.72;17.95;;;5.10;99.90;;;;;;5034384;28;20440;-79
2022/01/19 08:08:06;;;;;;;47.70;17.67;;;5.10;99.90;;;;;;5050783;28;20029;-79
2022/01/19 08:10:32;;;;;;;46.33;19.25;;;5.10;99.90;;;;;;5048569;28;20370;-79
2022/01/19 08:13:01;;;;;;;52.40;21.20;;;5.20;99.90;;;;;;5030609;28;20604;-79
2022/01/19 08:15:27;;;;;;;44.70;18.60;;;5.20;99.90;;;;;;5033502;28;20101;-79
2022/01/19 08:17:53;;;;;;;47.45;17.65;;;5.30;99.90;;;;;;5031085;28;20090;-79
2022/01/19 08:20:19;;;;;;;40.15;17.42;;;5.30;99.90;;;;;;5034736;28;20381;-79
2022/01/19 08:22:45;;;;;;;44.78;17.63;;;5.30;99.90;;;;;;5034976;28;20512;-80
2022/01/19 08:25:11;;;;;;;43.78;17.70;;;5.30;99.90;;;;;;5030577;28;20033;-79
2022/01/19 08:27:37;;;;;;;48.95;17.67;;;5.30;99.90;;;;;;5035581;28;20025;-79
2022/01/19 08:30:05;;;;;;;43.15;17.70;;;5.40;99.90;;;;;;5033224;28;20029;-79
2022/01/19 08:32:31;;;;;;;40.63;16.48;;;5.30;99.90;;;;;;5029089;28;20060;-80
2022/01/19 08:34:56;;;;;;;38.10;17.40;;;5.40;99.90;;;;;;5030968;28;20069;-80
2022/01/19 08:37:22;;;;;;;41.55;17.50;;;5.40;99.90;;;;;;5030290;28;20017;-79
2022/01/19 08:39:47;;;;;;;43.28;17.67;;;5.40;99.90;;;;;;5034827;28;20026;-80
2022/01/19 08:42:13;;;;;;;39.47;17.13;;;5.40;99.90;;;;;;5032902;28;20393;-80
2022/01/19 08:44:39;;;;;;;42.65;17.13;;;5.50;99.90;;;;;;5030052;28;20028;-79
2022/01/19 08:47:06;;;;;;;48.60;18.27;;;5.50;99.90;;;;;;5031640;28;20032;-79
2022/01/19 08:49:32;;;;;;;43.95;17.27;;;5.50;99.90;;;;;;5030306;28;20269;-79
2022/01/19 08:51:58;;;;;;;48.22;18.73;;;5.50;99.90;;;;;;5032824;28;20029;-80
2022/01/19 08:54:24;;;;;;;45.95;17.98;;;5.50;99.90;;;;;;5030407;28;20056;-80
2022/01/19 08:56:50;;;;;;;44.45;16.75;;;5.50;99.90;;;;;;5029570;28;20516;-79
2022/01/19 08:59:16;;;;;;;44.63;17.35;;;5.50;99.90;;;;;;5030339;28;20032;-80
2022/01/19 09:01:41;;;;;;;40.95;17.42;;;5.50;99.90;;;;;;5031679;28;20080;-80
2022/01/19 09:04:07;;;;;;;48.65;18.75;;;5.50;99.90;;;;;;5031235;28;20041;-79
2022/01/19 09:06:32;;;;;;;46.33;18.63;;;5.50;99.90;;;;;;5033112;28;20029;-80
2022/01/19 09:08:58;;;;;;;51.75;18.88;;;5.50;99.90;;;;;;5030205;28;20028;-79
2022/01/19 09:11:23;;;;;;;49.28;19.63;;;5.60;99.90;;;;;;5033241;28;20029;-80
2022/01/19 09:13:49;;;;;;;49.15;18.85;;;5.50;99.90;;;;;;5033204;28;20049;-79
2022/01/19 09:16:17;;;;;;;44.78;18.70;;;5.60;99.90;;;;;;5031626;28;20029;-79
2022/01/19 09:18:43;;;;;;;50.50;19.27;;;5.70;99.90;;;;;;5042650;28;20540;-79
2022/01/19 09:21:08;;;;;;;49.08;18.90;;;5.60;99.90;;;;;;5035261;28;20045;-79
2022/01/19 09:23:35;;;;;;;46.50;19.52;;;5.70;99.90;;;;;;5035184;28;20656;-80
2022/01/19 09:26:02;;;;;;;48.83;19.35;;;5.70;99.90;;;;;;5036494;28;20048;-79
2022/01/19 09:28:27;;;;;;;50.53;19.90;;;5.70;99.90;;;;;;5036337;28;20470;-79
2022/01/19 09:30:53;;;;;;;56.45;21.15;;;5.70;99.90;;;;;;5036340;28;20021;-79
2022/01/19 09:33:20;;;;;;;57.38;20.95;;;5.70;99.90;;;;;;5036161;28;20044;-79
2022/01/19 09:38:28;;;;;;;63.08;24.33;;;5.70;99.90;;;;;;5042139;28;20428;-79
2022/01/19 09:40:54;;;;;;;55.70;21.58;;;5.70;99.90;;;;;;5053745;28;20025;-79
2022/01/19 09:43:23;;;;;;;53.45;22.73;;;5.80;99.90;;;;;;5053633;28;20021;-79
2022/01/19 09:45:50;;;;;;;63.88;22.63;;;5.70;99.90;;;;;;5053685;28;20025;-79
2022/01/19 09:48:16;;;;;;;54.85;21.58;;;5.70;99.90;;;;;;5050980;28;20409;-79
2022/01/19 09:50:42;;;;;;;52.75;21.58;;;5.80;99.90;;;;;;5053232;28;20494;-79
2022/01/19 09:53:08;;;;;;;54.92;21.55;;;5.80;99.90;;;;;;5053189;28;20025;-79
2022/01/19 09:55:35;;;;;;;48.92;21.58;;;5.80;99.90;;;;;;5052085;28;20028;-80
2022/01/19 09:58:01;;;;;;;53.10;20.70;;;5.80;99.90;;;;;;5053242;28;20063;-79
2022/01/19 10:00:26;;;;;;;45.90;20.52;;;5.90;99.90;;;;;;5053004;28;20467;-79
2022/01/19 10:03:40;;;;;;;52.40;21.33;;;6.00;99.90;;;;;;5053216;28;20048;-79
2022/01/19 10:06:08;;;;;;;52.45;20.52;;;6.00;99.90;;;;;;5048300;28;20495;-80
2022/01/19 10:08:40;;;;;;;53.95;22.25;;;6.10;99.90;;;;;;5052147;28;20104;-79
2022/01/19 10:11:39;;;;;;;55.58;20.80;;;6.20;99.90;;;;;;5053628;28;20017;-79
2022/01/19 10:17:02;;;;;;;51.95;21.17;;;6.40;99.90;;;;;;5053523;28;20032;-79
2022/01/19 10:19:46;;;;;;;48.35;20.50;;;6.40;99.90;;;;;;5053027;28;20025;-79
2022/01/19 10:22:23;;;;;;;58.35;21.17;;;6.70;99.90;;;;;;5051779;28;20455;-79
2022/01/19 10:24:57;;;;;;;53.88;19.33;;;6.70;99.90;;;;;;5052977;28;20073;-79
2022/01/19 10:27:32;;;;;;;48.83;20.38;;;6.70;99.90;;;;;;5041473;28;20034;-79
2022/01/19 10:30:03;;;;;;;45.75;17.88;;;6.80;99.90;;;;;;5035783;28;20444;-79
2022/01/19 10:32:40;;;;;;;42.60;19.15;;;6.90;99.90;;;;;;5032259;28;20370;-80
2022/01/19 10:35:24;;;;;;;44.88;18.30;;;7.20;99.90;;;;;;5032707;28;20092;-80
2022/01/19 10:38:11;;;;;;;55.08;19.02;;;7.40;15.60;;;;;;5035543;28;20025;-80
2022/01/19 10:40:39;;;;;;;42.38;17.30;;;7.50;1.00;;;;;;5033064;28;20497;-80
2022/01/19 10:43:27;;;;;;;35.83;14.30;;;7.70;1.00;;;;;;5031487;28;20033;-81
2022/01/19 10:45:55;;;;;;;20.52;8.63;;;7.70;99.90;;;;;;5031696;28;20470;-80
2022/01/19 10:48:35;;;;;;;18.20;7.65;;;7.70;99.90;;;;;;5031623;28;20044;-80
2022/01/19 10:51:17;;;;;;;17.70;8.05;;;7.90;99.90;;;;;;5031848;28;20067;-81
2022/01/19 10:53:46;;;;;;;15.15;7.15;;;8.10;99.90;;;;;;5032100;28;20032;-80
2022/01/19 10:56:32;;;;;;;18.95;6.43;;;8.60;99.90;;;;;;5064579;28;20110;-80
2022/01/19 10:59:00;;;;;;;19.33;7.10;;;8.90;99.90;;;;;;5031122;28;20559;-80
2022/01/19 11:01:44;;;;;;;20.88;6.93;;;9.10;99.90;;;;;;5044116;28;20029;-80
2022/01/19 11:04:29;;;;;;;13.15;5.65;;;9.30;18.80;;;;;;5039570;28;20022;-80
2022/01/19 11:07:03;;;;;;;18.60;6.75;;;9.70;1.00;;;;;;5031921;28;20021;-80
2022/01/19 11:09:29;;;;;;;19.05;5.93;;;9.70;1.00;;;;;;5032101;28;20112;-80
2022/01/19 11:12:10;;;;;;;19.98;8.82;;;9.70;1.00;;;;;;5034103;28;20033;-80
2022/01/19 11:14:37;;;;;;;15.90;5.97;;;9.70;1.00;;;;;;5031344;28;20053;-80
2022/01/19 11:17:03;;;;;;;15.52;5.97;;;9.40;1.00;;;;;;5034298;28;20018;-80
2022/01/19 11:19:29;;;;;;;14.88;5.47;;;9.10;1.00;;;;;;5032389;28;20017;-80
2022/01/19 11:22:01;;;;;;;10.73;5.25;;;9.00;1.00;;;;;;5041886;28;20155;-80
2022/01/19 11:24:55;;;;;;;14.32;6.15;;;8.80;1.00;;;;;;5031692;28;20025;-80
2022/01/19 11:27:22;;;;;;;13.32;5.60;;;8.60;1.00;;;;;;5031879;28;20083;-80
2022/01/19 11:30:08;;;;;;;18.45;6.70;;;8.50;1.00;;;;;;5030188;28;20045;-80
2022/01/19 11:32:34;;;;;;;15.13;6.45;;;8.50;20.50;;;;;;5034617;28;20329;-80
2022/01/19 11:35:02;;;;;;;17.58;6.97;;;8.50;26.20;;;;;;5051281;28;20229;-80
2022/01/19 11:37:37;;;;;;;17.25;6.13;;;8.40;60.80;;;;;;5051781;28;20029;-80
2022/01/19 11:40:18;;;;;;;16.25;5.70;;;8.30;18.10;;;;;;5051586;28;20021;-80
2022/01/19 11:42:45;;;;;;;14.20;6.43;;;8.30;14.20;;;;;;5051873;28;20066;-80
2022/01/19 11:45:40;;;;;;;16.63;6.53;;;8.30;60.90;;;;;;5050221;28;20111;-80
2022/01/19 11:48:22;;;;;;;16.35;6.43;;;8.20;49.20;;;;;;5051352;28;20480;-79
2022/01/19 11:50:50;;;;;;;15.82;6.47;;;8.10;80.00;;;;;;5051318;28;20040;-80
2022/01/19 11:53:16;;;;;;;15.35;6.80;;;8.10;39.80;;;;;;5050889;28;20056;-81
2022/01/19 11:56:06;;;;;;;14.35;5.90;;;8.10;50.30;;;;;;5049429;28;20056;-81
2022/01/19 11:58:32;;;;;;;18.65;6.40;;;8.00;54.50;;;;;;5050821;28;20104;-81
2022/01/19 12:00:58;;;;;;;15.82;5.38;;;8.00;28.30;;;;;;5050681;28;20045;-80
2022/01/19 12:03:33;;;;;;;17.23;6.20;;;7.90;51.30;;;;;;5051197;28;20036;-80
2022/01/19 12:05:59;;;;;;;17.42;7.20;;;8.00;69.50;;;;;;5049706;28;20485;-81
2022/01/19 12:08:34;;;;;;;18.98;7.88;;;8.00;66.40;;;;;;5051116;28;20021;-81
2022/01/19 12:11:16;;;;;;;16.05;6.25;;;8.00;90.80;;;;;;5051098;28;20073;-81
2022/01/19 12:14:10;;;;;;;15.25;6.03;;;7.90;83.50;;;;;;5051074;28;20048;-81
2022/01/19 12:19:06;;;;;;;18.20;5.18;;;7.90;71.40;;;;;;5051463;28;20033;-81
2022/01/19 12:21:32;;;;;;;13.13;5.32;;;8.10;82.10;;;;;;5051946;28;20087;-81
2022/01/19 12:24:26;;;;;;;19.60;5.20;;;8.40;28.30;;;;;;5052001;28;20024;-81
2022/01/19 12:27:17;;;;;;;13.38;5.15;;;8.50;33.80;;;;;;5052329;28;20040;-81
2022/01/19 12:30:13;;;;;;;11.35;4.68;;;8.60;5.00;;;;;;5030190;28;20034;-82
2022/01/19 12:32:51;;;;;;;12.95;4.43;;;8.60;35.60;;;;;;5026040;28;20095;-82
2022/01/19 12:35:21;;;;;;;9.55;4.38;;;8.40;33.60;;;;;;5033587;28;20385;-81
2022/01/19 12:37:49;;;;;;;13.55;4.15;;;8.60;26.90;;;;;;5031255;28;20382;-82
2022/01/19 12:40:17;;;;;;;12.52;4.50;;;8.70;11.20;;;;;;5034134;28;20544;-82
2022/01/19 12:42:58;;;;;;;17.25;5.13;;;8.60;27.10;;;;;;5049414;28;20029;-81
2022/01/19 12:45:27;;;;;;;;;;;8.70;37.20;;;;;;5049572;28;20082;-82
2022/01/19 12:47:58;;;;;;;18.65;4.85;;;8.70;10.30;;;;;;5039463;28;19948;-81
2022/01/19 12:50:24;;;;;;;14.82;5.00;;;8.50;2.60;;;;;;5030327;28;20026;-81
2022/01/19 12:52:56;;;;;;;10.73;5.07;;;8.40;61.60;;;;;;5030448;28;20440;-81
2022/01/19 12:55:26;;;;;;;12.52;5.28;;;8.40;65.50;;;;;;5034438;28;20021;-81
2022/01/19 12:57:54;;;;;;;17.58;5.82;;;8.30;69.00;;;;;;5037211;28;20013;-81
2022/01/19 13:00:26;;;;;;;18.13;6.97;;;8.10;68.80;;;;;;5036888;28;20025;-81
2022/01/19 13:02:52;;;;;;;12.90;4.82;;;8.00;99.90;;;;;;5034974;28;20116;-81
2022/01/19 13:05:20;;;;;;;11.85;5.38;;;8.00;99.90;;;;;;5049795;28;20117;-81
2022/01/19 13:07:52;;;;;;;14.30;5.10;;;7.90;99.90;;;;;;5052982;28;20021;-81
2022/01/19 13:10:47;;;;;;;12.45;4.68;;;8.00;99.90;;;;;;5054608;28;20350;-81
2022/01/19 13:13:23;;;;;;;16.25;5.43;;;7.80;99.90;;;;;;5033551;28;20053;-81
2022/01/19 13:15:56;;;;;;;16.75;5.25;;;7.80;99.90;;;;;;5033790;28;20029;-81
2022/01/19 13:18:36;;;;;;;16.45;5.15;;;7.70;99.90;;;;;;5032477;28;20025;-81
2022/01/19 13:21:06;;;;;;;12.98;4.80;;;7.60;99.90;;;;;;5032599;28;20507;-81
2022/01/19 13:23:35;;;;;;;14.05;5.47;;;7.60;99.90;;;;;;5045040;28;20033;-81
2022/01/19 13:26:04;;;;;;;16.95;6.28;;;7.60;99.90;;;;;;5053757;28;20091;-81
2022/01/19 13:28:31;;;;;;;15.77;6.78;;;7.60;99.90;;;;;;5052658;28;20052;-81
2022/01/19 13:31:09;;;;;;;14.90;4.40;;;7.50;99.90;;;;;;5054041;28;20017;-81
2022/01/19 13:33:35;;;;;;;17.35;5.60;;;7.50;99.90;;;;;;5052800;28;20432;-81
2022/01/19 13:36:02;;;;;;;14.30;5.35;;;7.50;99.90;;;;;;5054097;28;20100;-81
2022/01/19 13:38:28;;;;;;;17.42;5.22;;;7.50;99.90;;;;;;5053535;28;20503;-81
2022/01/19 13:41:10;;;;;;;20.58;6.60;;;7.50;1.00;;;;;;5052535;28;20404;-81
2022/01/19 13:43:38;;;;;;;16.52;6.15;;;7.50;1.00;;;;;;5052758;28;20017;-82
2022/01/19 13:46:16;;;;;;;16.27;6.50;;;7.50;1.00;;;;;;5053630;28;20067;-82
2022/01/19 13:48:47;;;;;;;15.88;5.82;;;7.50;76.50;;;;;;5052438;28;20523;-82
2022/01/19 13:51:14;;;;;;;20.08;6.25;;;7.40;99.90;;;;;;5053734;28;20375;-82
2022/01/19 13:53:51;;;;;;;20.58;6.10;;;7.40;99.90;;;;;;5052701;28;20103;-82
2022/01/19 13:56:31;;;;;;;17.20;6.65;;;7.40;99.90;;;;;;5053888;28;20028;-82
2022/01/19 13:58:58;;;;;;;;;;;7.40;99.90;;;;;;5053599;28;20461;-81
2022/01/19 14:01:34;;;;;;;15.35;5.10;;;7.40;99.90;;;;;;5053373;28;19908;-82
2022/01/19 14:04:04;;;;;;;19.63;6.20;;;7.40;99.90;;;;;;5052047;28;20024;-82
2022/01/19 14:06:50;;;;;;;16.70;5.82;;;7.40;99.90;;;;;;5052338;28;20408;-82
2022/01/19 14:09:17;;;;;;;17.23;5.95;;;7.40;99.90;;;;;;5040613;28;20036;-82
2022/01/19 14:11:57;;;;;;;18.05;6.20;;;7.40;99.90;;;;;;5032817;28;20053;-82
2022/01/19 14:14:32;;;;;;;16.23;5.55;;;7.40;99.90;;;;;;5064839;28;20038;-82
2022/01/19 14:16:58;;;;;;;15.15;6.13;;;7.40;99.90;;;;;;5035605;28;20020;-82
2022/01/19 14:19:25;;;;;;;14.20;6.57;;;7.30;99.90;;;;;;5035485;28;20029;-82
2022/01/19 14:22:01;;;;;;;18.05;6.30;;;7.40;99.90;;;;;;5036286;28;20021;-82
2022/01/19 14:24:28;;;;;;;14.40;6.40;;;7.40;99.90;;;;;;5031371;28;20053;-81